Time;durP1;ratioP1;P1;durP2;ratioP2;P2;SDS_P1;SDS_P2;PMS_P1;PMS_P2;Temp;Humidity;BMP_temperature;BMP_pressure;BME280_temperature;BME280_humidity;BME280_pressure;Samples;Min_cycle;Max_cycle;Signal;HPM_P1;HPM_P2
2021/12/16 00:08:38;;;;;;;;;;;8.90;61.80;;;;;;5054759;28;19908;-66
2021/12/16 00:33:30;;;;;;;;;;;8.90;62.00;;;;;;5054358;28;19909;-66
2021/12/16 00:35:56;;;;;;;;;;;8.90;62.00;;;;;;5054007;28;19909;-66
2021/12/16 00:38:22;;;;;;;;;;;8.90;62.10;;;;;;5053911;28;19909;-66
2021/12/16 00:40:48;;;;;;;;;;;8.90;62.10;;;;;;5053841;28;19908;-66
2021/12/16 00:43:39;;;;;;;;;;;8.90;62.20;;;;;;5053809;28;20305;-66
2021/12/16 00:54:10;;;;;;;;;;;8.90;62.30;;;;;;5053990;28;19917;-66
2021/12/16 00:56:37;;;;;;;;;;;8.90;62.30;;;;;;5052405;28;19909;-66
2021/12/16 00:59:05;;;;;;;;;;;8.90;62.30;;;;;;5052254;28;19960;-66
2021/12/16 01:01:40;;;;;;;;;;;8.90;62.40;;;;;;5053480;28;20363;-66
2021/12/16 01:09:20;;;;;;;;;;;8.90;62.40;;;;;;5053752;28;19912;-66
2021/12/16 01:39:27;;;;;;;;;;;9.00;62.40;;;;;;5053255;28;19905;-66
2021/12/16 01:57:29;;;;;;;;;;;9.00;62.40;;;;;;5052934;28;20340;-66
2021/12/16 02:00:03;;;;;;;;;;;9.00;62.50;;;;;;5053064;28;19915;-66
2021/12/16 02:10:10;;;;;;;;;;;9.00;62.40;;;;;;5052942;28;20362;-66
2021/12/16 02:12:55;;;;;;;;;;;9.10;62.50;;;;;;5052557;28;19931;-66
2021/12/16 02:32:00;;;;;;;;;;;9.10;62.40;;;;;;5056586;28;19916;-66
2021/12/16 02:34:44;;;;;;;;;;;9.10;62.50;;;;;;5055076;28;19909;-66
2021/12/16 02:37:17;;;;;;;;;;;9.10;62.40;;;;;;5056182;28;19943;-66
2021/12/16 02:39:43;;;;;;;;;;;9.10;62.40;;;;;;5056481;28;19916;-66
2021/12/16 02:42:17;;;;;;;;;;;9.10;62.30;;;;;;5055910;28;19909;-66
2021/12/16 02:50:02;;;;;;;;;;;9.10;62.20;;;;;;5056306;28;19916;-66
2021/12/16 02:52:28;;;;;;;;;;;9.20;62.30;;;;;;5055864;28;20359;-66
2021/12/16 02:54:54;;;;;;;;;;;9.20;62.30;;;;;;5055863;28;19909;-66
2021/12/16 02:57:21;;;;;;;;;;;9.10;62.20;;;;;;5055834;28;19908;-66
2021/12/16 02:59:48;;;;;;;;;;;9.10;62.20;;;;;;5055648;28;19908;-66
2021/12/16 03:02:16;;;;;;;;;;;9.20;62.30;;;;;;5055549;28;19916;-66
2021/12/16 03:04:43;;;;;;;;;;;9.20;62.20;;;;;;5054341;28;19987;-66
2021/12/16 03:07:12;;;;;;;;;;;9.20;62.20;;;;;;5055590;28;20012;-66
2021/12/16 03:12:45;;;;;;;;;;;9.20;62.20;;;;;;5055473;28;20008;-66
2021/12/16 03:18:33;;;;;;;;;;;9.20;62.20;;;;;;5061735;28;19921;-66
2021/12/16 03:21:06;;;;;;;;;;;9.20;62.20;;;;;;5055362;28;19913;-66
2021/12/16 03:24:38;;;;;;;;;;;9.30;62.20;;;;;;5055223;28;19916;-67
2021/12/16 03:34:28;;;;;;;;;;;9.20;62.10;;;;;;5056040;28;19917;-66
2021/12/16 03:37:15;;;;;;;;;;;9.20;62.20;;;;;;5055611;28;19913;-66
2021/12/16 03:39:40;;;;;;;;;;;9.20;62.20;;;;;;5055488;28;19909;-66
2021/12/16 03:42:06;;;;;;;;;;;9.20;62.20;;;;;;5054799;28;19911;-66
2021/12/16 03:44:49;;;;;;;;;;;9.20;62.20;;;;;;5054896;28;19999;-66
2021/12/16 03:47:16;;;;;;;;;;;9.20;62.20;;;;;;5054910;28;19917;-66
2021/12/16 03:49:42;;;;;;;;;;;9.20;62.30;;;;;;5054752;28;20340;-66
2021/12/16 03:52:08;;;;;;;;;;;9.20;62.30;;;;;;5054719;28;19909;-66
2021/12/16 03:54:37;;;;;;;;;;;9.30;62.40;;;;;;5054766;28;20274;-66
2021/12/16 03:57:05;;;;;;;;;;;9.20;62.30;;;;;;5054675;28;19999;-66
2021/12/16 03:59:31;;;;;;;;;;;9.20;62.40;;;;;;5054570;28;19908;-66
2021/12/16 04:01:58;;;;;;;;;;;9.20;62.40;;;;;;5054512;28;20337;-66
2021/12/16 04:04:24;;;;;;;;;;;9.20;62.30;;;;;;5054437;28;19913;-66
2021/12/16 04:06:50;;;;;;;;;;;9.20;62.30;;;;;;5054413;28;19916;-66
2021/12/16 04:09:17;;;;;;;;;;;9.30;62.30;;;;;;5054445;28;19909;-65
2021/12/16 04:11:50;;;;;;;;;;;9.30;62.40;;;;;;5054342;28;19909;-66
2021/12/16 04:14:15;;;;;;;;;;;9.20;62.40;;;;;;5054391;28;19909;-66
2021/12/16 04:16:45;;;;;;;;;;;9.30;62.40;;;;;;5054068;28;20070;-66
2021/12/16 04:19:12;;;;;;;;;;;9.30;62.40;;;;;;5054262;28;19996;-67
2021/12/16 04:21:40;;;;;;;;;;;9.30;62.50;;;;;;5054205;28;20286;-66
2021/12/16 04:24:06;;;;;;;;;;;9.30;62.40;;;;;;5054048;28;19912;-66
2021/12/16 04:26:32;;;;;;;;;;;9.30;62.40;;;;;;5054110;28;19908;-66
2021/12/16 04:28:58;;;;;;;;;;;9.30;62.40;;;;;;5053982;28;20339;-66
2021/12/16 04:31:24;;;;;;;;;;;9.30;62.40;;;;;;5053973;28;20332;-67
2021/12/16 04:33:50;;;;;;;;;;;9.20;62.30;;;;;;5053817;28;19909;-66
2021/12/16 04:36:16;;;;;;;;;;;9.30;62.30;;;;;;5053899;28;19931;-66
2021/12/16 04:38:43;;;;;;;;;;;9.20;62.40;;;;;;5053848;28;20386;-66
2021/12/16 04:41:11;;;;;;;;;;;9.20;62.30;;;;;;5053445;28;19999;-66
2021/12/16 04:43:40;;;;;;;;;;;9.30;62.30;;;;;;5053779;28;20019;-66
2021/12/16 04:46:08;;;;;;;;;;;9.30;62.30;;;;;;5053574;28;19917;-67
2021/12/16 04:48:34;;;;;;;;;;;9.30;62.30;;;;;;5053569;28;19909;-66
2021/12/16 04:51:00;;;;;;;;;;;9.30;62.30;;;;;;5053564;28;19915;-66
2021/12/16 04:53:25;;;;;;;;;;;9.20;62.30;;;;;;5052272;28;19908;-66
2021/12/16 04:55:51;;;;;;;;;;;9.20;62.30;;;;;;5054827;28;20315;-66
2021/12/16 04:58:17;;;;;;;;;;;9.20;63.10;;;;;;5073335;28;19954;-66
2021/12/16 05:00:43;;;;;;;;;;;9.20;62.30;;;;;;5073580;28;19931;-66
2021/12/16 05:03:09;;;;;;;;;;;9.20;62.30;;;;;;5073180;28;19913;-66
2021/12/16 05:05:34;;;;;;;;;;;9.20;62.50;;;;;;5073181;28;20350;-66
2021/12/16 05:08:00;;;;;;;;;;;9.30;62.60;;;;;;5073160;28;20247;-66
2021/12/16 05:10:26;;;;;;;;;;;9.30;62.60;;;;;;5073135;28;20394;-66
2021/12/16 05:12:55;;;;;;;;;;;9.20;62.40;;;;;;5073139;28;19909;-66
2021/12/16 05:15:22;;;;;;;;;;;9.20;62.50;;;;;;5073154;28;19908;-67
2021/12/16 05:17:51;;;;;;;;;;;9.20;62.40;;;;;;5071568;28;19951;-66
2021/12/16 05:20:22;;;;;;;;;;;9.20;62.40;;;;;;5072843;28;19915;-66
2021/12/16 05:25:48;;;;;;;;;;;9.20;62.30;;;;;;5073299;28;19915;-66
2021/12/16 05:28:15;;;;;;;;;;;9.20;62.30;;;;;;5072947;28;20285;-67
2021/12/16 05:30:41;;;;;;;;;;;9.20;62.30;;;;;;5072959;28;19958;-66
2021/12/16 05:33:07;;;;;;;;;;;9.30;62.30;;;;;;5071610;28;19904;-66
2021/12/16 05:35:33;;;;;;;;;;;9.30;62.30;;;;;;5072817;28;19916;-67
2021/12/16 05:37:59;;;;;;;;;;;9.30;62.30;;;;;;5072971;28;19950;-66
2021/12/16 05:40:26;;;;;;;;;;;9.30;62.30;;;;;;5072902;28;19908;-66
2021/12/16 05:42:52;;;;;;;;;;;9.30;62.20;;;;;;5072876;28;19912;-66
2021/12/16 05:45:19;;;;;;;;;;;9.20;62.10;;;;;;5072836;28;20354;-66
2021/12/16 05:47:44;;;;;;;;;;;9.20;62.10;;;;;;5072868;28;19965;-67
2021/12/16 05:50:10;;;;;;;;;;;9.20;62.10;;;;;;5072910;28;19999;-66
2021/12/16 05:52:36;;;;;;;;;;;9.20;62.00;;;;;;5073732;28;19912;-66
2021/12/16 05:55:03;;;;;;;;;;;9.30;62.10;;;;;;5076905;28;19934;-67
2021/12/16 05:57:29;;;;;;;;;;;9.20;62.10;;;;;;5077048;28;19915;-66
2021/12/16 05:59:54;;;;;;;;;;;9.20;62.00;;;;;;5076735;28;19909;-66
2021/12/16 06:02:20;;;;;;;;;;;9.30;62.10;;;;;;5077127;28;19911;-66
2021/12/16 06:04:46;;;;;;;;;;;9.20;62.10;;;;;;5077041;28;19909;-66
2021/12/16 06:07:12;;;;;;;;;;;9.30;62.10;;;;;;5077047;28;19932;-66
2021/12/16 06:09:37;;;;;;;;;;;9.30;62.10;;;;;;5076728;28;20327;-66
2021/12/16 06:12:03;;;;;;;;;;;9.20;62.00;;;;;;5076538;28;20385;-66
2021/12/16 06:28:02;;;;;;;;;;;9.20;61.80;;;;;;5076406;28;19916;-66
2021/12/16 06:30:29;;;;;;;;;;;9.20;61.90;;;;;;5076321;28;20504;-66
2021/12/16 06:32:55;;;;;;;;;;;9.20;61.90;;;;;;5075978;28;19909;-66
2021/12/16 06:35:21;;;;;;;;;;;9.20;61.90;;;;;;5076145;28;20366;-66
2021/12/16 06:37:47;;;;;;;;;;;9.30;62.00;;;;;;5076014;28;19919;-66
2021/12/16 06:40:14;;;;;;;;;;;9.30;62.00;;;;;;5075882;28;19909;-66
2021/12/16 06:42:41;;;;;;;;;;;9.30;62.00;;;;;;5075933;28;19921;-66
2021/12/16 06:45:13;;;;;;;;;;;9.30;62.00;;;;;;5075947;28;19916;-66
2021/12/16 06:47:49;;;;;;;;;;;9.40;62.00;;;;;;5075930;28;20270;-66
2021/12/16 06:50:26;;;;;;;;;;;9.40;61.90;;;;;;5074495;28;19908;-66
2021/12/16 06:52:56;;;;;;;;;;;9.40;61.80;;;;;;5075733;28;19973;-67
2021/12/16 06:55:40;;;;;;;;;;;9.30;61.70;;;;;;5075725;28;19917;-66
2021/12/16 06:58:27;;;;;;;;;;;9.30;61.70;;;;;;5075822;28;20005;-66
2021/12/16 07:01:04;;;;;;;;;;;9.30;61.70;;;;;;5075737;28;20255;-66
2021/12/16 07:03:43;;;;;;;;;;;9.30;61.70;;;;;;5075169;28;19917;-66
2021/12/16 07:06:09;;;;;;;;;;;9.30;61.80;;;;;;5075097;28;19909;-66
2021/12/16 07:08:35;;;;;;;;;;;9.30;61.80;;;;;;5075573;28;19909;-66
2021/12/16 07:11:01;;;;;;;;;;;9.30;61.90;;;;;;5075484;28;20386;-66
2021/12/16 07:13:35;;;;;;;;;;;9.30;62.00;;;;;;5075579;28;19915;-66
2021/12/16 07:16:01;;;;;;;;;;;9.30;62.00;;;;;;5075212;28;19909;-66
2021/12/16 07:18:27;;;;;;;;;;;9.30;62.10;;;;;;5075413;28;19919;-66
2021/12/16 07:20:53;;;;;;;;;;;9.40;62.20;;;;;;5075377;28;19955;-66
2021/12/16 07:23:18;;;;;;;;;;;9.40;62.30;;;;;;5075285;28;20007;-66
2021/12/16 07:25:44;;;;;;;;;;;9.40;62.40;;;;;;5075277;28;20013;-66
2021/12/16 07:28:09;;;;;;;;;;;9.40;62.40;;;;;;5075290;28;19909;-67
2021/12/16 07:30:37;;;;;;;;;;;9.40;62.50;;;;;;5075110;28;19908;-66
2021/12/16 07:33:03;;;;;;;;;;;9.40;62.60;;;;;;5075045;28;19936;-66
2021/12/16 07:35:29;;;;;;;;;;;9.40;62.70;;;;;;5075038;28;19918;-66
2021/12/16 07:37:55;;;;;;;;;;;9.40;62.70;;;;;;5074996;28;20000;-67
2021/12/16 07:40:23;;;;;;;;;;;9.50;62.70;;;;;;5074937;28;19908;-66
2021/12/16 07:45:35;;;;;;;;;;;9.40;62.80;;;;;;5074946;28;19916;-66
2021/12/16 07:48:02;;;;;;;;;;;9.40;62.90;;;;;;5074777;28;19908;-66
2021/12/16 07:50:28;;;;;;;;;;;9.40;63.00;;;;;;5074798;28;20306;-66
2021/12/16 07:52:53;;;;;;;;;;;9.40;63.10;;;;;;5074484;28;19943;-66
2021/12/16 07:55:22;;;;;;;;;;;9.40;63.20;;;;;;5074675;28;19940;-66
2021/12/16 07:57:48;;;;;;;;;;;9.50;63.40;;;;;;5074692;28;19915;-66
2021/12/16 08:00:18;;;;;;;;;;;9.50;63.50;;;;;;5074513;28;19913;-66
2021/12/16 08:02:44;;;;;;;;;;;9.50;63.50;;;;;;5074332;28;19912;-66
2021/12/16 08:05:11;;;;;;;;;;;9.50;63.50;;;;;;5073167;28;19909;-66
2021/12/16 08:07:38;;;;;;;;;;;9.50;63.50;;;;;;5074251;28;19905;-66
2021/12/16 08:10:05;;;;;;;;;;;9.60;63.60;;;;;;5074371;28;19995;-66
2021/12/16 08:12:34;;;;;;;;;;;9.60;63.60;;;;;;5074267;28;19905;-67
2021/12/16 08:14:59;;;;;;;;;;;9.60;63.60;;;;;;5074165;28;19909;-67
2021/12/16 08:17:25;;;;;;;;;;;9.60;63.60;;;;;;5073931;28;19931;-66
2021/12/16 08:19:51;;;;;;;;;;;9.60;63.70;;;;;;5074275;28;19991;-67
2021/12/16 08:22:16;;;;;;;;;;;9.70;63.80;;;;;;5073977;28;20049;-66
2021/12/16 08:24:42;;;;;;;;;;;9.70;63.70;;;;;;5074217;28;19908;-66
2021/12/16 08:27:09;;;;;;;;;;;9.70;63.60;;;;;;5073952;28;19908;-67
2021/12/16 08:29:34;;;;;;;;;;;9.80;63.70;;;;;;5072506;28;20121;-67
2021/12/16 08:32:00;;;;;;;;;;;9.80;63.80;;;;;;5073973;28;20003;-66
2021/12/16 08:34:27;;;;;;;;;;;9.90;63.90;;;;;;5073556;28;20257;-66
2021/12/16 08:36:53;;;;;;;;;;;9.90;63.80;;;;;;5073800;28;19916;-66
2021/12/16 08:39:19;;;;;;;;;;;9.90;63.60;;;;;;5073792;28;19908;-66
2021/12/16 08:41:48;;;;;;;;;;;10.00;63.50;;;;;;5073677;28;19958;-66
2021/12/16 08:44:14;;;;;;;;;;;9.90;63.40;;;;;;5073706;28;20357;-67
2021/12/16 08:46:44;;;;;;;;;;;10.00;63.40;;;;;;5073671;28;19909;-66
2021/12/16 08:49:10;;;;;;;;;;;10.00;63.40;;;;;;5073562;28;19916;-66
2021/12/16 08:51:37;;;;;;;;;;;10.00;63.30;;;;;;5073297;28;19909;-66
2021/12/16 08:54:03;;;;;;;;;;;10.10;63.40;;;;;;5073605;28;19928;-67
2021/12/16 08:56:30;;;;;;;;;;;10.10;63.20;;;;;;5073428;28;19912;-66
2021/12/16 08:58:57;;;;;;;;;;;10.10;63.10;;;;;;5073529;28;19908;-67
2021/12/16 09:01:25;;;;;;;;;;;10.10;62.90;;;;;;5073417;28;20304;-66
2021/12/16 09:03:51;;;;;;;;;;;10.10;62.80;;;;;;5073460;28;19912;-66
2021/12/16 09:06:17;;;;;;;;;;;10.20;62.80;;;;;;5073749;28;20445;-66
2021/12/16 09:08:43;;;;;;;;;;;10.10;62.70;;;;;;5073677;28;19961;-67
2021/12/16 09:11:10;;;;;;;;;;;10.20;62.50;;;;;;5072972;28;19965;-67
2021/12/16 09:13:38;;;;;;;;;;;10.20;62.40;;;;;;5073204;28;19909;-67
2021/12/16 09:16:06;;;;;;;;;;;10.10;62.20;;;;;;5072956;28;19958;-67
2021/12/16 09:18:33;;;;;;;;;;;10.10;62.20;;;;;;5067068;28;20003;-67
2021/12/16 09:21:00;;;;;;;;;;;10.10;62.20;;;;;;5059775;28;19963;-67
2021/12/16 09:23:25;;;;;;;;;;;10.10;62.20;;;;;;5064037;28;19913;-67
2021/12/16 09:25:51;;;;;;;;;;;10.10;62.20;;;;;;5053042;28;20369;-67
2021/12/16 09:28:18;;;;;;;;;;;10.10;62.20;;;;;;5065426;28;19978;-67
2021/12/16 09:30:44;;;;;;;;;;;10.10;62.20;;;;;;5072965;28;19954;-67
2021/12/16 09:33:14;;;;;;;;;;;10.20;62.20;;;;;;5072836;28;19909;-67
2021/12/16 09:35:41;;;;;;;;;;;10.20;62.10;;;;;;5072941;28;19958;-67
2021/12/16 09:38:09;;;;;;;;;;;10.20;62.00;;;;;;5070436;28;19976;-67
2021/12/16 09:40:38;;;;;;;;;;;10.20;62.00;;;;;;5058718;28;20367;-67
2021/12/16 09:43:05;;;;;;;;;;;10.20;61.90;;;;;;5052869;28;19912;-67
2021/12/16 09:45:31;;;;;;;;;;;10.20;61.80;;;;;;5068071;28;19908;-67
2021/12/16 09:47:57;;;;;;;;;;;10.10;61.50;;;;;;5072718;28;19913;-67
2021/12/16 09:50:25;;;;;;;;;;;10.20;61.70;;;;;;5069998;28;19912;-67
2021/12/16 09:52:50;;;;;;;;;;;10.20;61.70;;;;;;5062970;28;20132;-67
2021/12/16 09:55:16;;;;;;;;;;;10.20;61.70;;;;;;5064965;28;20000;-67
2021/12/16 09:57:43;;;;;;;;;;;10.10;61.60;;;;;;5052776;28;20389;-67
2021/12/16 10:00:10;;;;;;;;;;;10.20;61.60;;;;;;5063235;28;20392;-67
2021/12/16 10:02:38;;;;;;;;;;;10.20;61.60;;;;;;5071336;28;19961;-67
2021/12/16 10:05:04;;;;;;;;;;;10.20;61.70;;;;;;5062625;28;19925;-68
2021/12/16 10:07:33;;;;;;;;;;;10.20;61.70;;;;;;5062466;28;19916;-67
2021/12/16 10:10:00;;;;;;;;;;;10.30;61.60;;;;;;5063777;28;19958;-67
2021/12/16 10:12:31;;;;;;;;;;;10.30;61.50;;;;;;5053661;28;20004;-67
2021/12/16 10:17:30;;;;;;;;;;;10.30;61.30;;;;;;5059769;28;20368;-67
2021/12/16 10:19:57;;;;;;;;;;;10.30;61.20;;;;;;5052590;28;19958;-67
2021/12/16 10:22:28;;;;;;;;;;;10.40;61.20;;;;;;5052380;28;19908;-67
2021/12/16 10:24:56;;;;;;;;;;;10.40;61.10;;;;;;5059518;28;19913;-67
2021/12/16 10:27:25;;;;;;;;;;;10.50;61.30;;;;;;5068870;28;20292;-67
2021/12/16 10:29:58;;;;;;;;;;;10.50;61.20;;;;;;5059423;28;19916;-67
2021/12/16 10:32:37;;;;;;;;;;;10.50;61.10;;;;;;5050976;28;19919;-67
2021/12/16 10:35:16;;;;;;;;;;;10.60;61.00;;;;;;5053336;28;19913;-67
2021/12/16 10:37:44;;;;;;;;;;;10.60;60.80;;;;;;5053296;28;20355;-67
2021/12/16 10:40:28;;;;;;;;;;;10.70;60.70;;;;;;5061875;28;19954;-68
2021/12/16 10:42:53;;;;;;;;;;;10.70;60.50;;;;;;5057198;28;20451;-69
2021/12/16 10:45:26;;;;;;;;;;;10.70;60.30;;;;;;5056872;28;19944;-69
2021/12/16 10:48:11;;;;;;;;;;;10.80;60.50;;;;;;5055500;28;19997;-70
2021/12/16 10:50:54;;;;;;;;;;;10.80;60.20;;;;;;5061815;28;20282;-70
2021/12/16 10:53:38;;;;;;;;;;;10.90;60.30;;;;;;5075768;28;20289;-69
2021/12/16 10:56:04;;;;;;;;;;;11.00;60.40;;;;;;5063688;28;20649;-70
2021/12/16 10:58:48;;;;;;;;;;;11.00;59.90;;;;;;5059488;28;19913;-70
2021/12/16 11:01:32;;;;;;;;;;;11.00;59.90;;;;;;5067214;28;19923;-69
2021/12/16 11:03:58;;;;;;;;;;;11.00;59.70;;;;;;5065298;28;19917;-69
2021/12/16 11:06:26;;;;;;;;;;;11.10;59.70;;;;;;5074911;28;19913;-69
2021/12/16 11:08:52;;;;;;;;;;;11.10;59.70;;;;;;5075586;28;19999;-69
2021/12/16 11:11:25;;;;;;;;;;;11.10;59.50;;;;;;5075541;28;19999;-69
2021/12/16 11:14:00;;;;;;;;;;;11.20;59.40;;;;;;5075647;28;19909;-69
2021/12/16 11:16:30;;;;;;;;;;;11.20;59.40;;;;;;5075171;28;19916;-69
2021/12/16 11:18:56;;;;;;;;;;;11.20;59.30;;;;;;5075352;28;19919;-69
2021/12/16 11:21:21;;;;;;;;;;;11.20;59.20;;;;;;5075627;28;19912;-69
2021/12/16 11:23:50;;;;;;;;;;;11.20;59.10;;;;;;5073887;28;19919;-69
2021/12/16 11:26:18;;;;;;;;;;;11.20;59.00;;;;;;5075285;28;19909;-69
2021/12/16 11:28:51;;;;;;;;;;;11.20;59.00;;;;;;5075220;28;20389;-69
2021/12/16 11:31:25;;;;;;;;;;;11.20;58.90;;;;;;5075113;28;19916;-70
2021/12/16 11:33:55;;;;;;;;;;;11.20;58.80;;;;;;5073834;28;19909;-69
2021/12/16 11:36:22;;;;;;;;;;;11.20;58.90;;;;;;5074729;28;19916;-69
2021/12/16 11:38:59;;;;;;;;;;;11.10;58.90;;;;;;5074798;28;19916;-69
2021/12/16 11:41:32;;;;;;;;;;;11.10;58.80;;;;;;5075088;28;19909;-69
2021/12/16 11:44:00;;;;;;;;;;;11.10;58.90;;;;;;5074778;28;20294;-69
2021/12/16 11:46:26;;;;;;;;;;;11.20;59.00;;;;;;5069880;28;19916;-69
2021/12/16 11:48:53;;;;;;;;;;;11.20;59.10;;;;;;5054862;28;19909;-69
2021/12/16 11:51:37;;;;;;;;;;;11.20;59.10;;;;;;5054030;28;20437;-69
2021/12/16 11:54:05;;;;;;;;;;;11.20;58.90;;;;;;5054733;28;19944;-70
2021/12/16 11:56:36;;;;;;;;;;;11.20;58.90;;;;;;5054588;28;19915;-69
2021/12/16 11:59:02;;;;;;;;;;;11.20;58.80;;;;;;5054603;28;19908;-69
2021/12/16 12:01:28;;;;;;;;;;;11.20;58.90;;;;;;5054617;28;20342;-69
2021/12/16 12:03:59;;;;;;;;;;;11.20;58.70;;;;;;5054446;28;19982;-70
2021/12/16 12:06:27;;;;;;;;;;;11.20;58.70;;;;;;5054557;28;19909;-69
2021/12/16 12:08:54;;;;;;;;;;;11.20;58.60;;;;;;5054417;28;19940;-70
2021/12/16 12:11:23;;;;;;;;;;;11.20;58.60;;;;;;5054393;28;20027;-69
2021/12/16 12:13:51;;;;;;;;;;;11.20;58.60;;;;;;5054305;28;19909;-69
2021/12/16 12:16:18;;;;;;;;;;;11.20;58.70;;;;;;5054062;28;19932;-69
2021/12/16 12:18:48;;;;;;;;;;;11.20;58.60;;;;;;5054340;28;20294;-69
2021/12/16 12:21:33;;;;;;;;;;;11.20;58.60;;;;;;5054050;28;19992;-69
2021/12/16 12:24:01;;;;;;;;;;;11.20;58.60;;;;;;5054392;28;19956;-69
2021/12/16 12:26:28;;;;;;;;;;;11.30;58.60;;;;;;5053995;28;19931;-69
2021/12/16 12:28:56;;;;;;;;;;;11.30;58.60;;;;;;5054051;28;19947;-70
2021/12/16 12:31:24;;;;;;;;;;;11.30;58.60;;;;;;5054004;28;19995;-69
2021/12/16 12:33:50;;;;;;;;;;;11.30;58.50;;;;;;5053980;28;19909;-69
2021/12/16 12:36:17;;;;;;;;;;;11.40;58.60;;;;;;5052415;28;20294;-69
2021/12/16 12:38:43;;;;;;;;;;;11.40;58.50;;;;;;5053887;28;19909;-69
2021/12/16 12:41:09;;;;;;;;;;;11.40;58.30;;;;;;5053739;28;19909;-69
2021/12/16 12:43:35;;;;;;;;;;;11.40;58.30;;;;;;5052368;28;20286;-69
2021/12/16 12:46:01;;;;;;;;;;;11.40;58.30;;;;;;5053497;28;19909;-70
2021/12/16 12:48:27;;;;;;;;;;;11.40;58.30;;;;;;5052155;28;19909;-69
2021/12/16 12:50:55;;;;;;;;;;;11.50;58.20;;;;;;5053406;28;19919;-69
2021/12/16 12:53:27;;;;;;;;;;;11.50;58.10;;;;;;5053428;28;20382;-70
2021/12/16 12:55:56;;;;;;;;;;;11.50;58.00;;;;;;5053458;28;19909;-70
2021/12/16 12:58:25;;;;;;;;;;;11.50;58.10;;;;;;5053496;28;19917;-69
2021/12/16 13:00:59;;;;;;;;;;;11.50;57.90;;;;;;5053444;28;20013;-69
2021/12/16 13:03:25;;;;;;;;;;;11.40;57.80;;;;;;5052969;28;20289;-69
2021/12/16 13:05:57;;;;;;;;;;;11.40;57.80;;;;;;5051999;28;20011;-70
2021/12/16 13:08:28;;;;;;;;;;;11.40;57.80;;;;;;5051983;28;19905;-69
2021/12/16 13:10:57;;;;;;;;;;;11.40;57.90;;;;;;5052017;28;19913;-69
2021/12/16 13:27:07;;;;;;;;;;;11.30;58.10;;;;;;5053141;28;19909;-69
2021/12/16 13:32:27;;;;;;;;;;;11.30;58.10;;;;;;5052763;28;19909;-69
2021/12/16 13:37:24;;;;;;;;;;;11.30;58.20;;;;;;5052836;28;19909;-69
2021/12/16 13:39:54;;;;;;;;;;;11.20;58.10;;;;;;5052980;28;19908;-69
2021/12/16 13:42:20;;;;;;;;;;;11.20;58.20;;;;;;5052858;28;19912;-69
2021/12/16 13:44:51;;;;;;;;;;;11.20;58.30;;;;;;5052400;28;19920;-69
2021/12/16 13:47:35;;;;;;;;;;;11.20;58.20;;;;;;5052841;28;19908;-69
2021/12/16 14:08:38;;;;;;;;;;;11.10;58.30;;;;;;5052585;28;19912;-70
2021/12/16 14:11:31;;;;;;;;;;;11.10;58.30;;;;;;5052879;28;20350;-69
2021/12/16 14:27:22;;;;;;;;;;;11.00;58.50;;;;;;5056328;28;19916;-69
2021/12/16 14:35:24;;;;;;;;;;;10.90;58.60;;;;;;5056426;28;19909;-69
2021/12/16 14:38:11;;;;;;;;;;;10.90;58.70;;;;;;5054858;28;19909;-69
2021/12/16 14:40:52;;;;;;;;;;;10.90;58.80;;;;;;5055937;28;20015;-69
2021/12/16 14:43:35;;;;;;;;;;;10.90;58.80;;;;;;5055889;28;19919;-70
2021/12/16 14:46:04;;;;;;;;;;;10.90;58.90;;;;;;5055800;28;19909;-70
2021/12/16 14:48:35;;;;;;;;;;;10.90;58.90;;;;;;5055869;28;19959;-70
2021/12/16 14:51:07;;;;;;;;;;;10.90;58.90;;;;;;5055795;28;20392;-70
2021/12/16 14:53:34;;;;;;;;;;;10.90;58.80;;;;;;5055607;28;20359;-70
2021/12/16 14:56:20;;;;;;;;;;;10.90;58.80;;;;;;5055677;28;19916;-70
2021/12/16 14:58:51;;;;;;;;;;;10.90;58.80;;;;;;5055512;28;19904;-70
2021/12/16 15:01:20;;;;;;;;;;;10.80;58.90;;;;;;5055509;28;19909;-70
2021/12/16 15:03:47;;;;;;;;;;;10.80;58.90;;;;;;5055391;28;19916;-70
2021/12/16 15:06:16;;;;;;;;;;;10.80;58.90;;;;;;5055535;28;20338;-71
2021/12/16 15:12:28;;;;;;;;;;;10.80;58.90;;;;;;5056136;28;19916;-70
2021/12/16 15:17:13;;;;;;;;;;;10.80;59.00;;;;;;5055155;28;20306;-70
2021/12/16 15:35:45;;;;;;;;;;;10.60;59.50;;;;;;5054940;28;19915;-70
2021/12/16 15:44:12;;;;;;;;;;;10.50;59.80;;;;;;5054729;28;19981;-70
2021/12/16 15:46:38;;;;;;;;;;;10.60;59.90;;;;;;5054703;28;19996;-70
2021/12/16 15:49:04;;;;;;;;;;;10.50;60.00;;;;;;5054661;28;19911;-70
2021/12/16 15:51:30;;;;;;;;;;;10.50;60.10;;;;;;5054675;28;19909;-70
2021/12/16 15:53:59;;;;;;;;;;;10.50;60.10;;;;;;5054675;28;19974;-70
2021/12/16 15:56:31;;;;;;;;;;;10.50;60.20;;;;;;5054489;28;19905;-70
2021/12/16 15:58:59;;;;;;;;;;;10.50;60.30;;;;;;5054662;28;19909;-70
2021/12/16 16:01:27;;;;;;;;;;;10.50;60.40;;;;;;5054535;28;19905;-70
2021/12/16 16:03:53;;;;;;;;;;;10.50;60.50;;;;;;5054460;28;19916;-71
2021/12/16 16:06:20;;;;;;;;;;;10.50;60.60;;;;;;5054403;28;19916;-70
2021/12/16 16:08:51;;;;;;;;;;;10.50;60.60;;;;;;5054548;28;20422;-70
2021/12/16 16:11:20;;;;;;;;;;;10.40;60.60;;;;;;5054195;28;20385;-70
2021/12/16 16:13:50;;;;;;;;;;;10.40;60.80;;;;;;5053116;28;20018;-70
2021/12/16 16:16:17;;;;;;;;;;;10.40;60.90;;;;;;5054062;28;20342;-70
2021/12/16 16:18:54;;;;;;;;;;;10.40;61.00;;;;;;5054095;28;20280;-70
2021/12/16 16:21:25;;;;;;;;;;;10.40;61.00;;;;;;5054148;28;20367;-70
2021/12/16 16:23:53;;;;;;;;;;;10.40;61.10;;;;;;5054020;28;19920;-70
2021/12/16 16:26:19;;;;;;;;;;;10.40;61.20;;;;;;5054094;28;20056;-70
2021/12/16 16:28:46;;;;;;;;;;;10.40;61.40;;;;;;5053850;28;19915;-70
2021/12/16 16:31:13;;;;;;;;;;;10.40;61.40;;;;;;5053977;28;19909;-70
2021/12/16 16:33:39;;;;;;;;;;;10.40;61.50;;;;;;5053776;28;20252;-70
2021/12/16 16:36:07;;;;;;;;;;;10.40;61.50;;;;;;5053545;28;19931;-70
2021/12/16 16:38:33;;;;;;;;;;;10.40;61.60;;;;;;5053733;28;20345;-70
2021/12/16 16:41:01;;;;;;;;;;;10.40;61.70;;;;;;5053720;28;19915;-71
2021/12/16 16:43:39;;;;;;;;;;;10.40;61.80;;;;;;5053791;28;19912;-70
2021/12/16 16:46:13;;;;;;;;;;;10.40;61.80;;;;;;5053765;28;20218;-70
2021/12/16 16:51:09;;;;;;;;;;;10.40;62.70;;;;;;5053676;28;19915;-69
2021/12/16 16:53:43;;;;;;;;;;;10.40;61.90;;;;;;5053640;28;20004;-70
2021/12/16 16:56:09;;;;;;;;;;;10.40;61.90;;;;;;5052387;28;20010;-70
2021/12/16 16:58:34;;;;;;;;;;;10.30;61.90;;;;;;5053421;28;19952;-70
2021/12/16 17:01:01;;;;;;;;;;;10.30;62.00;;;;;;5052253;28;19905;-70
2021/12/16 17:03:26;;;;;;;;;;;10.20;62.10;;;;;;5053684;28;20309;-70
2021/12/16 17:05:57;;;;;;;;;;;10.20;62.20;;;;;;5053436;28;19919;-70
2021/12/16 17:08:24;;;;;;;;;;;10.20;62.20;;;;;;5053443;28;19909;-70
2021/12/16 17:10:58;;;;;;;;;;;10.20;62.40;;;;;;5053305;28;19909;-70
2021/12/16 17:13:40;;;;;;;;;;;10.20;62.60;;;;;;5053269;28;19909;-70
2021/12/16 17:18:38;;;;;;;;;;;10.20;62.80;;;;;;5053162;28;20274;-70
2021/12/16 17:21:13;;;;;;;;;;;10.10;62.80;;;;;;5053054;28;19916;-70
2021/12/16 17:23:39;;;;;;;;;;;10.10;62.90;;;;;;5053100;28;19913;-70
2021/12/16 17:26:23;;;;;;;;;;;10.10;63.00;;;;;;5053128;28;20235;-70
2021/12/16 17:28:57;;;;;;;;;;;10.10;63.00;;;;;;5053113;28;20000;-70
2021/12/16 17:31:49;;;;;;;;;;;10.10;63.10;;;;;;5053339;28;20242;-70
2021/12/16 17:34:16;;;;;;;;;;;10.10;63.20;;;;;;5051855;28;19908;-70
2021/12/16 17:36:50;;;;;;;;;;;10.20;63.30;;;;;;5052902;28;19909;-70
2021/12/16 17:39:17;;;;;;;;;;;10.20;63.30;;;;;;5052953;28;19908;-71
2021/12/16 17:41:51;;;;;;;;;;;10.20;63.30;;;;;;5052981;28;19940;-70
2021/12/16 17:44:17;;;;;;;;;;;10.20;63.30;;;;;;5053034;28;19913;-70
2021/12/16 17:46:43;;;;;;;;;;;10.20;63.40;;;;;;5052910;28;19916;-70
2021/12/16 17:49:09;;;;;;;;;;;10.20;63.40;;;;;;5052265;28;19912;-70
2021/12/16 17:54:19;;;;;;;;;;;10.20;63.40;;;;;;5053089;28;19908;-70
2021/12/16 17:56:55;;;;;;;;;;;10.20;63.40;;;;;;5052928;28;19916;-70
2021/12/16 17:59:30;;;;;;;;;;;10.20;63.40;;;;;;5052887;28;19916;-70
2021/12/16 18:01:55;;;;;;;;;;;10.20;63.50;;;;;;5052819;28;19916;-70
2021/12/16 18:04:22;;;;;;;;;;;10.20;63.50;;;;;;5052569;28;20318;-70
2021/12/16 18:07:00;;;;;;;;;;;10.20;63.50;;;;;;5052857;28;19909;-70
2021/12/16 18:09:28;;;;;;;;;;;10.20;63.50;;;;;;5052812;28;19916;-70
2021/12/16 18:11:56;;;;;;;;;;;10.20;63.60;;;;;;5052692;28;19916;-70
2021/12/16 18:14:25;;;;;;;;;;;10.20;63.50;;;;;;5052606;28;20406;-69
2021/12/16 18:16:53;;;;;;;;;;;10.20;63.70;;;;;;5052483;28;19917;-69
2021/12/16 18:19:39;;;;;;;;;;;10.30;63.70;;;;;;5052567;28;19913;-70
2021/12/16 18:22:06;;;;;;;;;;;10.30;63.70;;;;;;5052190;28;19987;-69
2021/12/16 18:24:36;;;;;;;;;;;10.30;63.70;;;;;;5052065;28;19948;-69
2021/12/16 18:27:03;;;;;;;;;;;10.30;63.70;;;;;;5052370;28;19917;-70
2021/12/16 18:29:34;;;;;;;;;;;10.30;63.80;;;;;;5052457;28;19909;-70
2021/12/16 18:31:59;;;;;;;;;;;10.30;63.80;;;;;;5052443;28;19916;-70
2021/12/16 18:34:26;;;;;;;;;;;10.30;63.80;;;;;;5052406;28;19912;-69
2021/12/16 18:36:54;;;;;;;;;;;10.30;63.80;;;;;;5052350;28;19920;-69
2021/12/16 18:39:23;;;;;;;;;;;10.30;63.80;;;;;;5052381;28;20321;-70